Time;durP1;ratioP1;P1;durP2;ratioP2;P2;SDS_P1;SDS_P2;PMS_P1;PMS_P2;Temp;Humidity;BMP_temperature;BMP_pressure;BME280_temperature;BME280_humidity;BME280_pressure;Samples;Min_cycle;Max_cycle;Signal;HPM_P1;HPM_P2
2021/12/11 00:00:14;;;;;;;61.63;25.43;;;;;;;1.48;100.00;99808.25;10502813;28;20227;-64
2021/12/11 00:05:38;;;;;;;64.93;26.27;;;;;;;1.36;100.00;99800.34;10503109;28;20665;-65
2021/12/11 00:10:45;;;;;;;70.80;28.33;;;;;;;1.29;100.00;99810.44;10502740;28;20219;-66
2021/12/11 00:15:50;;;;;;;61.87;22.37;;;;;;;1.32;100.00;99816.47;10502835;28;20218;-62
2021/12/11 00:20:58;;;;;;;67.07;25.97;;;;;;;1.23;100.00;99818.84;10502543;28;20219;-65
2021/12/11 00:26:05;;;;;;;67.27;23.50;;;;;;;1.24;100.00;99823.16;10507505;28;20249;-65
2021/12/11 00:31:09;;;;;;;63.50;23.83;;;;;;;1.21;100.00;99829.91;10543995;28;20222;-67
2021/12/11 00:36:16;;;;;;;65.43;22.43;;;;;;;1.27;100.00;99824.88;10543675;28;20233;-66
2021/12/11 00:41:24;;;;;;;66.90;24.50;;;;;;;1.25;100.00;99817.19;10543752;28;20225;-66
2021/12/11 00:46:30;;;;;;;65.83;24.30;;;;;;;1.21;100.00;99833.28;10543639;28;20227;-66
2021/12/11 00:51:33;;;;;;;61.20;21.83;;;;;;;1.11;100.00;99837.38;10543237;28;20587;-65
2021/12/11 00:56:41;;;;;;;73.43;23.53;;;;;;;1.11;100.00;99852.72;10543114;28;20322;-64
2021/12/11 01:01:49;;;;;;;71.70;24.43;;;;;;;1.16;100.00;99847.69;10542892;28;20226;-65
2021/12/11 01:06:56;;;;;;;68.70;24.20;;;;;;;1.15;100.00;99848.53;10542548;28;20229;-68
2021/12/11 01:12:09;;;;;;;76.10;23.57;;;;;;;1.08;100.00;99851.78;10542639;28;20294;-63
2021/12/11 01:17:18;;;;;;;78.57;25.27;;;;;;;1.06;100.00;99864.53;10542220;28;20229;-66
2021/12/11 01:22:33;;;;;;;75.37;27.40;;;;;;;1.14;100.00;99870.66;10542442;28;20231;-66
2021/12/11 01:27:40;;;;;;;60.97;22.63;;;;;;;1.10;100.00;99862.91;10510325;28;20568;-67
2021/12/11 01:32:43;;;;;;;70.93;25.40;;;;;;;1.09;100.00;99863.72;10503182;28;20584;-64
2021/12/11 01:37:49;;;;;;;63.27;23.03;;;;;;;1.03;100.00;99871.28;10502464;28;20216;-67
2021/12/11 01:42:54;;;;;;;55.47;21.60;;;;;;;1.06;100.00;99882.41;10502603;28;20312;-67
2021/12/11 01:47:58;;;;;;;66.77;22.13;;;;;;;1.02;100.00;99882.31;10502178;28;20569;-64
2021/12/11 01:53:06;;;;;;;68.30;22.30;;;;;;;0.98;100.00;99886.50;10502183;28;20223;-65
2021/12/11 01:58:14;;;;;;;55.40;21.90;;;;;;;1.07;100.00;99891.78;10502071;28;20220;-65
2021/12/11 02:03:22;;;;;;;58.83;20.77;;;;;;;0.94;100.00;99901.75;10501859;28;20537;-64
2021/12/11 02:08:29;;;;;;;58.13;20.33;;;;;;;0.91;100.00;99899.13;10501467;28;20565;-63
2021/12/11 02:13:45;;;;;;;56.17;19.37;;;;;;;0.80;100.00;99898.03;10501875;28;20228;-62
2021/12/11 02:18:52;;;;;;;54.97;19.53;;;;;;;0.74;100.00;99905.59;10501459;28;20248;-62
2021/12/11 02:24:01;;;;;;;50.87;18.13;;;;;;;0.70;100.00;99916.53;10501163;28;20675;-64
2021/12/11 02:29:09;;;;;;;54.07;19.60;;;;;;;0.74;100.00;99920.91;10501252;28;20310;-65
2021/12/11 02:34:22;;;;;;;58.30;18.90;;;;;;;0.74;100.00;99926.00;10501314;28;20239;-64
2021/12/11 02:39:30;;;;;;;43.70;15.07;;;;;;;0.59;100.00;99944.38;10501139;28;20232;-64
2021/12/11 02:44:39;;;;;;;50.30;17.87;;;;;;;0.64;100.00;99949.63;10500713;28;20537;-63
2021/12/11 02:49:46;;;;;;;52.37;18.07;;;;;;;0.68;100.00;99957.38;10500270;28;20220;-66
2021/12/11 02:54:59;;;;;;;46.73;17.00;;;;;;;0.61;100.00;99975.06;10500554;28;20230;-63
2021/12/11 03:00:11;;;;;;;55.60;19.83;;;;;;;0.60;100.00;99981.00;10500777;28;20314;-66
2021/12/11 03:05:21;;;;;;;51.53;20.63;;;;;;;0.68;100.00;99990.56;10500207;28;20307;-66
2021/12/11 03:10:26;;;;;;;54.47;19.70;;;;;;;0.58;100.00;99990.31;10500337;28;20223;-66
2021/12/11 03:15:29;;;;;;;51.83;20.43;;;;;;;0.62;100.00;99999.78;10500106;28;20224;-64
2021/12/11 03:20:36;;;;;;;56.30;17.87;;;;;;;0.60;100.00;100009.97;10500127;28;20223;-65
2021/12/11 03:25:41;;;;;;;45.30;16.87;;;;;;;0.56;100.00;100014.94;10499969;28;20235;-65
2021/12/11 03:30:56;;;;;;;45.30;15.13;;;;;;;0.57;100.00;100014.97;10500083;28;20224;-66
2021/12/11 03:36:01;;;;;;;48.40;17.93;;;;;;;0.57;100.00;100003.91;10499796;28;20224;-67
2021/12/11 03:41:07;;;;;;;39.30;16.27;;;;;;;0.58;100.00;100001.41;10500177;28;20224;-65
2021/12/11 03:46:12;;;;;;;50.03;18.37;;;;;;;0.56;100.00;100002.16;10499848;28;20228;-65
2021/12/11 03:51:19;;;;;;;45.47;17.83;;;;;;;0.60;100.00;100006.53;10499594;28;20222;-66
2021/12/11 03:56:24;;;;;;;48.33;19.90;;;;;;;0.56;100.00;99999.63;10499231;28;20224;-64
2021/12/11 04:01:31;;;;;;;48.60;18.60;;;;;;;0.58;100.00;100005.63;10499446;28;20212;-69
2021/12/11 04:06:36;;;;;;;47.73;17.40;;;;;;;0.67;100.00;100001.63;10506578;28;20234;-68
2021/12/11 04:11:41;;;;;;;45.37;18.10;;;;;;;0.71;100.00;100007.63;10506756;28;20212;-66
2021/12/11 04:16:46;;;;;;;56.13;20.13;;;;;;;0.69;100.00;100011.84;10506033;28;20230;-65
2021/12/11 04:21:50;;;;;;;46.27;17.77;;;;;;;0.60;100.00;100017.63;10506054;28;20295;-67
2021/12/11 04:26:56;;;;;;;44.13;17.77;;;;;;;0.71;100.00;100012.72;10505758;28;20535;-64
2021/12/11 04:32:02;;;;;;;46.57;19.03;;;;;;;0.74;100.00;100021.31;10505757;28;20230;-64
2021/12/11 04:37:11;;;;;;;44.07;17.43;;;;;;;0.67;100.00;100024.59;10505565;28;20192;-65
2021/12/11 04:42:27;;;;;;;44.03;18.30;;;;;;;0.80;100.00;100038.50;10505196;28;20556;-66
2021/12/11 04:47:36;;;;;;;50.30;20.27;;;;;;;0.75;100.00;100045.19;10505090;28;20641;-67
2021/12/11 04:52:51;;;;;;;45.07;19.13;;;;;;;0.77;100.00;100048.63;10504970;28;20299;-67
2021/12/11 04:58:07;;;;;;;43.73;17.37;;;;;;;0.85;100.00;100047.13;10504606;28;20238;-64
2021/12/11 05:03:47;;;;;;;41.63;17.60;;;;;;;0.94;100.00;100048.22;10504244;28;20222;-67
2021/12/11 05:14:20;;;;;;;42.90;17.60;;;;;;;0.90;100.00;100059.19;10493236;28;20315;-67
2021/12/11 05:19:24;;;;;;;42.10;18.53;;;;;;;0.94;100.00;100062.66;10503686;28;20232;-66
2021/12/11 05:24:27;;;;;;;43.83;18.63;;;;;;;0.99;100.00;100076.41;10503315;28;20232;-67
2021/12/11 05:29:32;;;;;;;44.40;18.10;;;;;;;0.96;100.00;100078.91;10503017;28;20662;-66
2021/12/11 05:34:36;;;;;;;38.90;18.00;;;;;;;0.99;100.00;100089.19;10502779;28;20226;-67
2021/12/11 05:39:40;;;;;;;49.17;18.93;;;;;;;1.01;100.00;100083.28;10502646;28;20219;-66
2021/12/11 05:44:45;;;;;;;46.37;17.33;;;;;;;1.05;100.00;100089.34;10502586;28;20230;-66
2021/12/11 05:49:49;;;;;;;46.60;18.90;;;;;;;1.05;100.00;100097.00;10502521;28;20584;-63
2021/12/11 05:54:53;;;;;;;44.57;18.57;;;;;;;1.08;100.00;100102.19;10502532;28;20226;-69
2021/12/11 05:59:58;;;;;;;48.10;19.20;;;;;;;1.10;100.00;100111.59;10502202;28;20230;-63
2021/12/11 06:05:02;;;;;;;49.33;18.73;;;;;;;1.06;100.00;100114.03;10501715;28;20242;-65
2021/12/11 06:10:10;;;;;;;47.90;19.50;;;;;;;1.15;100.00;100121.94;10501513;28;20302;-66
2021/12/11 06:15:15;;;;;;;47.17;19.27;;;;;;;1.03;100.00;100121.66;10501515;28;20222;-67
2021/12/11 06:20:23;;;;;;;47.57;19.50;;;;;;;1.10;100.00;100137.13;10501703;28;20216;-68
2021/12/11 06:25:30;;;;;;;38.23;15.73;;;;;;;1.14;100.00;100132.97;10500561;28;20232;-69
2021/12/11 06:30:36;;;;;;;47.93;18.53;;;;;;;1.17;100.00;100135.63;10501293;28;20234;-67
2021/12/11 06:35:43;;;;;;;42.27;18.93;;;;;;;1.09;100.00;100144.78;10500896;28;20515;-67
2021/12/11 06:40:47;;;;;;;41.53;17.37;;;;;;;1.12;100.00;100143.16;10500962;28;20226;-64
2021/12/11 06:45:53;;;;;;;41.87;17.63;;;;;;;1.18;100.00;100155.22;10500809;28;20216;-66
2021/12/11 06:50:57;;;;;;;39.90;18.67;;;;;;;1.18;100.00;100145.00;10500760;28;20226;-69
2021/12/11 06:56:01;;;;;;;45.27;18.30;;;;;;;1.26;100.00;100143.47;10500389;28;20228;-65
2021/12/11 07:01:08;;;;;;;38.77;16.77;;;;;;;1.25;100.00;100157.09;10500438;28;20226;-62
2021/12/11 07:06:15;;;;;;;40.57;18.43;;;;;;;1.27;100.00;100163.09;10500636;28;20280;-64
2021/12/11 07:11:20;;;;;;;41.37;17.70;;;;;;;1.27;100.00;100173.34;10500420;28;20216;-64
2021/12/11 07:16:25;;;;;;;41.77;18.10;;;;;;;1.26;100.00;100173.31;10499861;28;20299;-65
2021/12/11 07:21:28;;;;;;;44.47;17.97;;;;;;;1.31;100.00;100175.13;10500103;28;20268;-64
2021/12/11 07:26:34;;;;;;;42.47;17.73;;;;;;;1.35;100.00;100179.47;10499594;28;20387;-66
2021/12/11 07:31:39;;;;;;;38.93;16.00;;;;;;;1.39;100.00;100181.28;10499993;28;20227;-67
2021/12/11 07:36:44;;;;;;;39.27;16.17;;;;;;;1.50;100.00;100194.31;10501982;28;20216;-66
2021/12/11 07:41:48;;;;;;;41.30;17.57;;;;;;;1.52;100.00;100190.94;10507570;28;20220;-66
2021/12/11 07:46:55;;;;;;;39.33;15.57;;;;;;;1.55;100.00;100203.84;10506988;28;20315;-69
2021/12/11 07:51:59;;;;;;;42.27;17.37;;;;;;;1.56;100.00;100205.53;10507409;28;20679;-64
2021/12/11 07:57:03;;;;;;;51.33;18.17;;;;;;;1.61;100.00;100220.97;10506829;28;20555;-66
2021/12/11 08:02:08;;;;;;;47.93;17.47;;;;;;;1.56;100.00;100225.13;10506787;28;20254;-66
2021/12/11 08:07:12;;;;;;;51.37;18.30;;;;;;;1.56;100.00;100230.25;10505850;28;20281;-64
2021/12/11 08:12:15;;;;;;;48.60;18.93;;;;;;;1.64;100.00;100238.97;10505622;28;20231;-68
2021/12/11 08:17:20;;;;;;;55.50;20.97;;;;;;;1.73;100.00;100246.84;10506095;28;20650;-69
2021/12/11 08:22:23;;;;;;;51.50;20.23;;;;;;;1.74;100.00;100248.59;10505535;28;20225;-63
2021/12/11 08:27:27;;;;;;;51.47;20.30;;;;;;;1.82;100.00;100255.63;10505220;28;20232;-70
2021/12/11 08:32:32;;;;;;;65.10;22.07;;;;;;;1.84;100.00;100259.06;10505271;28;20650;-65
2021/12/11 08:37:35;;;;;;;58.60;23.63;;;;;;;1.81;100.00;100269.22;10505241;28;20204;-65
2021/12/11 08:42:40;;;;;;;59.73;22.33;;;;;;;1.84;100.00;100283.78;10504952;28;20198;-63
2021/12/11 08:47:46;;;;;;;62.17;23.93;;;;;;;1.89;100.00;100293.31;10504089;28;20523;-65
2021/12/11 08:52:52;;;;;;;63.23;24.73;;;;;;;1.93;100.00;100299.34;10504656;28;20199;-65
2021/12/11 08:57:56;;;;;;;64.53;24.90;;;;;;;2.00;100.00;100309.75;10504348;28;20701;-64
2021/12/11 09:03:08;;;;;;;72.27;27.13;;;;;;;1.93;100.00;100304.47;10504205;28;20196;-63
2021/12/11 09:08:15;;;;;;;61.50;25.50;;;;;;;1.84;100.00;100307.69;10503983;28;20216;-67
2021/12/11 09:13:21;;;;;;;67.83;25.53;;;;;;;1.86;100.00;100313.72;10503795;28;20633;-63
2021/12/11 09:18:30;;;;;;;75.93;28.07;;;;;;;1.96;100.00;100318.22;10503642;28;20195;-66
2021/12/11 09:23:41;;;;;;;68.97;27.57;;;;;;;1.97;100.00;100321.59;10503449;28;20218;-65
2021/12/11 09:28:49;;;;;;;67.87;27.20;;;;;;;2.00;100.00;100332.78;10476799;28;20688;-69
2021/12/11 09:33:57;;;;;;;68.00;28.17;;;;;;;2.01;100.00;100339.66;10461506;28;20275;-64
2021/12/11 09:39:11;;;;;;;69.83;27.00;;;;;;;2.02;100.00;100341.38;10461312;28;20649;-64
2021/12/11 09:44:19;;;;;;;73.87;27.63;;;;;;;2.16;100.00;100350.22;10461110;28;20276;-65
2021/12/11 09:49:25;;;;;;;81.10;28.47;;;;;;;2.23;100.00;100362.34;10475062;28;20231;-65
2021/12/11 09:54:30;;;;;;;70.73;27.90;;;;;;;2.29;100.00;100366.75;10488823;28;20199;-65
2021/12/11 09:59:43;;;;;;;73.70;28.40;;;;;;;2.31;100.00;100388.13;10136744;27;10000210;-66
2021/12/11 10:04:57;;;;;;;67.27;26.87;;;;;;;2.30;100.00;100388.94;10497242;28;20200;-64
2021/12/11 10:10:11;;;;;;;70.23;27.03;;;;;;;2.22;100.00;100393.03;10497883;28;20232;-64
2021/12/11 10:15:22;;;;;;;74.23;27.27;;;;;;;2.28;100.00;100390.59;10498434;28;20216;-67
2021/12/11 10:20:28;;;;;;;63.00;26.70;;;;;;;2.39;100.00;100412.22;10489639;28;20231;-65
2021/12/11 10:25:35;;;;;;;77.87;28.97;;;;;;;2.45;100.00;100408.94;10489063;28;20701;-64
2021/12/11 10:30:44;;;;;;;67.17;25.30;;;;;;;2.49;100.00;100403.91;10485178;28;20218;-63
2021/12/11 10:35:52;;;;;;;68.87;26.70;;;;;;;2.59;100.00;100405.00;10495505;28;20337;-65
2021/12/11 10:40:59;;;;;;;71.33;26.47;;;;;;;2.55;100.00;100421.09;10464946;28;20657;-65
2021/12/11 10:46:06;;;;;;;76.40;25.53;;;;;;;2.50;100.00;100418.47;10460569;28;20569;-64
2021/12/11 10:51:15;;;;;;;70.63;25.57;;;;;;;2.58;100.00;100422.03;10457002;28;20234;-65
2021/12/11 10:56:22;;;;;;;67.30;24.73;;;;;;;2.65;100.00;100413.66;10482525;28;20229;-62
2021/12/11 11:01:30;;;;;;;75.20;24.70;;;;;;;2.67;100.00;100421.38;10475240;28;20203;-66
2021/12/11 11:06:34;;;;;;;66.87;24.50;;;;;;;2.67;100.00;100426.50;10490723;28;20232;-65
2021/12/11 11:11:38;;;;;;;68.97;26.97;;;;;;;2.75;100.00;100428.41;10496954;28;20232;-62
2021/12/11 11:16:46;;;;;;;72.57;25.03;;;;;;;2.77;100.00;100431.00;10491871;28;20212;-61
2021/12/11 11:21:56;;;;;;;69.73;26.07;;;;;;;2.79;100.00;100430.22;10482865;28;20311;-65
2021/12/11 11:27:01;;;;;;;73.60;26.17;;;;;;;2.82;100.00;100439.66;10488106;28;20246;-64
2021/12/11 11:32:09;;;;;;;64.80;25.70;;;;;;;2.91;100.00;100444.97;10470097;28;20270;-63
2021/12/11 11:37:18;;;;;;;67.60;26.67;;;;;;;2.78;100.00;100463.50;10465957;28;20235;-65
2021/12/11 11:42:23;;;;;;;76.20;26.97;;;;;;;2.82;100.00;100463.59;10462616;28;20564;-63
2021/12/11 11:47:28;;;;;;;72.77;26.63;;;;;;;2.83;100.00;100474.72;10463702;28;20248;-65
2021/12/11 11:52:31;;;;;;;64.77;26.00;;;;;;;2.82;100.00;100476.41;10479431;28;20226;-65
2021/12/11 11:57:39;;;;;;;67.40;24.57;;;;;;;2.87;100.00;100481.63;10492632;28;20215;-64
2021/12/11 12:02:45;;;;;;;74.57;25.93;;;;;;;2.86;100.00;100490.16;10544958;28;20280;-66
2021/12/11 12:07:48;;;;;;;73.63;26.97;;;;;;;2.83;100.00;100500.34;10536991;28;20229;-65
2021/12/11 12:12:53;;;;;;;63.90;25.90;;;;;;;2.87;100.00;100500.44;10489812;28;20654;-65
2021/12/11 12:17:58;;;;;;;78.90;28.20;;;;;;;2.88;100.00;100509.84;10500231;28;20260;-66
2021/12/11 12:23:03;;;;;;;75.20;27.30;;;;;;;2.88;100.00;100511.56;10487810;28;20217;-67
2021/12/11 12:28:06;;;;;;;68.93;25.93;;;;;;;2.80;100.00;100519.06;10467211;28;20570;-65
2021/12/11 12:33:13;;;;;;;68.60;25.67;;;;;;;2.80;100.00;100523.31;10460695;28;20227;-66
2021/12/11 12:38:19;;;;;;;71.17;27.07;;;;;;;2.90;100.00;100518.44;10460716;28;20225;-64
2021/12/11 12:48:56;;;;;;;69.03;28.27;;;;;;;2.83;100.00;100533.66;10533466;28;20566;-63
2021/12/11 12:54:01;;;;;;;72.23;28.10;;;;;;;2.95;100.00;100536.50;10482167;28;20655;-65
2021/12/11 12:59:08;;;;;;;73.10;28.53;;;;;;;2.86;100.00;100533.72;10450164;28;20227;-63
2021/12/11 13:04:17;;;;;;;70.93;27.07;;;;;;;2.96;100.00;100543.34;10455434;28;20303;-64
2021/12/11 13:09:26;;;;;;;75.37;26.77;;;;;;;2.91;100.00;100555.19;10449745;28;20221;-63
2021/12/11 13:14:31;;;;;;;73.33;27.67;;;;;;;2.89;100.00;100551.72;10451798;28;20216;-67
2021/12/11 13:19:40;;;;;;;76.13;28.67;;;;;;;2.95;100.00;100564.69;10449598;28;20304;-66
2021/12/11 13:24:49;;;;;;;65.60;25.97;;;;;;;2.88;100.00;100581.59;10448961;28;20224;-63
2021/12/11 13:29:54;;;;;;;71.70;26.37;;;;;;;2.87;100.00;100579.88;10448797;28;20236;-66
2021/12/11 13:35:04;;;;;;;70.17;28.30;;;;;;;2.83;100.00;100592.59;10448932;28;20259;-63
2021/12/11 13:40:10;;;;;;;67.43;27.70;;;;;;;2.84;100.00;100599.44;10448651;28;20220;-66
2021/12/11 13:45:18;;;;;;;80.40;29.93;;;;;;;2.82;100.00;100599.41;10448129;28;20701;-65
2021/12/11 13:50:29;;;;;;;68.53;28.53;;;;;;;2.81;100.00;100610.50;10513976;28;20226;-69
2021/12/11 13:55:32;;;;;;;76.83;29.80;;;;;;;2.87;100.00;100610.63;10529890;28;20227;-63
2021/12/11 14:00:40;;;;;;;74.40;28.73;;;;;;;2.83;100.00;100613.09;10502536;28;20302;-65
2021/12/11 14:05:49;;;;;;;77.50;29.43;;;;;;;2.80;100.00;100613.88;10502683;28;20262;-64
2021/12/11 14:10:54;;;;;;;76.87;29.90;;;;;;;2.78;100.00;100607.84;10468849;28;20278;-63
2021/12/11 14:15:59;;;;;;;77.60;32.20;;;;;;;2.74;100.00;100610.28;10461300;28;20235;-64
2021/12/11 14:21:06;;;;;;;81.80;30.57;;;;;;;2.74;100.00;100616.28;10460598;28;20312;-64
2021/12/11 14:26:12;;;;;;;78.73;29.03;;;;;;;2.66;100.00;100622.06;10460483;28;20232;-62
2021/12/11 14:31:19;;;;;;;84.10;31.40;;;;;;;2.65;100.00;100623.75;10460291;28;20227;-67
2021/12/11 14:36:27;;;;;;;72.80;28.43;;;;;;;2.61;100.00;100631.28;10460123;28;20543;-66
2021/12/11 14:41:32;;;;;;;80.77;29.27;;;;;;;2.53;100.00;100628.56;10459917;28;20731;-63
2021/12/11 14:46:35;;;;;;;81.80;32.80;;;;;;;2.53;100.00;100635.34;10461430;28;20693;-65
2021/12/11 14:51:40;;;;;;;86.87;30.83;;;;;;;2.50;100.00;100642.97;10501018;28;20223;-64
2021/12/11 14:56:48;;;;;;;75.80;30.13;;;;;;;2.46;100.00;100646.25;10501292;28;20240;-64
2021/12/11 15:01:54;;;;;;;88.00;29.83;;;;;;;2.44;100.00;100641.09;10503814;28;20216;-63
2021/12/11 15:07:00;;;;;;;81.60;29.03;;;;;;;2.36;100.00;100634.91;10504086;28;20669;-64
2021/12/11 15:12:05;;;;;;;77.73;29.47;;;;;;;2.30;100.00;100640.75;10502295;28;20278;-63
2021/12/11 15:17:11;;;;;;;87.60;30.77;;;;;;;2.25;100.00;100644.88;10502925;28;20287;-64
2021/12/11 15:22:25;;;;;;;72.17;28.93;;;;;;;2.27;100.00;100657.72;10502710;28;20278;-66
2021/12/11 15:27:29;;;;;;;86.33;31.10;;;;;;;2.28;100.00;100675.66;10502350;28;20227;-64
2021/12/11 15:32:33;;;;;;;89.70;30.10;;;;;;;2.26;100.00;100702.06;10502525;28;20200;-62
2021/12/11 15:37:38;;;;;;;84.17;31.60;;;;;;;2.22;100.00;100719.03;10502261;28;20204;-64
2021/12/11 15:42:42;;;;;;;86.73;30.70;;;;;;;2.19;100.00;100736.00;10502304;28;20630;-64
2021/12/11 15:47:47;;;;;;;83.70;31.23;;;;;;;2.17;100.00;100755.56;10463201;28;20561;-63
2021/12/11 15:52:52;;;;;;;81.60;30.80;;;;;;;2.14;100.00;100752.94;10419052;28;20189;-65
2021/12/11 15:57:57;;;;;;;82.37;30.13;;;;;;;2.17;100.00;100769.22;10419041;28;20276;-64
2021/12/11 16:03:02;;;;;;;81.13;31.07;;;;;;;2.21;100.00;100775.28;10416801;28;20190;-64
2021/12/11 16:08:10;;;;;;;77.27;28.30;;;;;;;2.23;100.00;100779.66;10103351;28;10000596;-63
2021/12/11 16:13:14;;;;;;;80.00;29.90;;;;;;;2.21;100.00;100773.63;10498008;28;20728;-64
2021/12/11 16:18:18;;;;;;;77.00;31.30;;;;;;;2.23;100.00;100777.09;10497677;28;20224;-66
2021/12/11 16:23:27;;;;;;;84.10;30.77;;;;;;;2.26;100.00;100784.84;10497113;28;20295;-64
2021/12/11 16:28:30;;;;;;;84.43;30.47;;;;;;;2.28;100.00;100797.69;10497574;28;20691;-64
2021/12/11 16:33:34;;;;;;;83.63;32.57;;;;;;;2.31;100.00;100796.09;10497275;28;20234;-64
2021/12/11 16:38:42;;;;;;;80.13;30.17;;;;;;;2.30;100.00;100804.63;10497222;28;20848;-63
2021/12/11 16:43:47;;;;;;;93.17;33.43;;;;;;;2.34;100.00;100816.69;10497408;28;20220;-63
2021/12/11 16:48:50;;;;;;;89.47;31.30;;;;;;;2.30;100.00;100816.53;10496801;28;20577;-63
2021/12/11 16:53:56;;;;;;;86.80;32.07;;;;;;;2.30;100.00;100830.22;10497015;28;20216;-64
2021/12/11 16:59:00;;;;;;;81.93;31.30;;;;;;;2.30;100.00;100812.28;10496810;28;20596;-63
2021/12/11 17:04:06;;;;;;;82.97;29.00;;;;;;;2.34;100.00;100813.25;10496879;28;20220;-65
2021/12/11 17:09:14;;;;;;;75.50;30.97;;;;;;;2.29;100.00;100828.50;10468506;28;20236;-64
2021/12/11 17:14:17;;;;;;;89.40;31.77;;;;;;;2.31;100.00;100825.97;10455157;28;20216;-63
2021/12/11 17:19:21;;;;;;;80.93;30.20;;;;;;;2.33;100.00;100832.00;10454885;28;20247;-63
2021/12/11 17:24:30;;;;;;;79.00;29.13;;;;;;;2.30;100.00;100844.72;10454825;28;20686;-63
2021/12/11 17:29:34;;;;;;;75.63;28.80;;;;;;;2.32;100.00;100843.94;10454543;28;20224;-64
2021/12/11 17:34:38;;;;;;;79.10;30.37;;;;;;;2.31;100.00;100859.28;10460798;28;20217;-63
2021/12/11 17:39:42;;;;;;;77.07;30.07;;;;;;;2.30;100.00;100858.38;10460454;28;20570;-64
2021/12/11 17:44:46;;;;;;;79.87;28.77;;;;;;;2.34;100.00;100861.91;10461952;28;20271;-64
2021/12/11 17:49:51;;;;;;;76.70;29.30;;;;;;;2.28;100.00;100865.16;10421906;28;20229;-61
2021/12/11 17:54:57;;;;;;;80.30;30.13;;;;;;;2.32;100.00;100867.00;10448347;28;20212;-64
2021/12/11 18:00:01;;;;;;;79.33;29.90;;;;;;;2.35;100.00;100879.88;10459972;28;20220;-66
2021/12/11 18:05:13;;;;;;;77.67;29.43;;;;;;;2.32;100.00;100884.91;10431720;28;20223;-67
2021/12/11 18:10:22;;;;;;;72.50;27.57;;;;;;;2.30;100.00;100896.81;10465749;28;20287;-64
2021/12/11 18:15:30;;;;;;;92.17;31.37;;;;;;;2.34;100.00;100896.09;10460773;28;20251;-66
2021/12/11 18:20:47;;;;;;;95.57;37.00;;;;;;;2.31;100.00;100900.25;10460988;28;20311;-63
2021/12/11 18:26:00;;;;;;;91.63;33.37;;;;;;;2.12;100.00;100903.88;10460164;28;20658;-63
2021/12/11 18:31:08;;;;;;;110.20;36.87;;;;;;;2.23;100.00;100910.22;10460476;28;20248;-66
2021/12/11 18:36:14;;;;;;;107.87;37.00;;;;;;;2.26;100.00;100905.19;10460464;28;20226;-68
2021/12/11 18:41:22;;;;;;;101.70;36.60;;;;;;;2.26;100.00;100915.44;10459992;28;20225;-65
2021/12/11 18:46:30;;;;;;;107.93;39.87;;;;;;;2.25;100.00;100913.72;10459263;28;20252;-62
2021/12/11 18:51:36;;;;;;;112.10;44.90;;;;;;;2.18;100.00;100924.56;10458515;28;20217;-64
2021/12/11 18:56:42;;;;;;;115.23;42.43;;;;;;;2.26;100.00;100929.94;10456430;28;20239;-64
2021/12/11 19:01:50;;;;;;;106.83;42.13;;;;;;;2.25;100.00;100939.31;10437688;28;20226;-63
2021/12/11 19:06:55;;;;;;;118.37;43.37;;;;;;;2.22;100.00;100939.22;10435611;28;20212;-65
2021/12/11 19:12:04;;;;;;;126.20;45.13;;;;;;;2.22;100.00;100954.59;10499979;28;20227;-64
2021/12/11 19:17:10;;;;;;;118.83;44.70;;;;;;;2.18;100.00;100956.97;10500203;28;20300;-64
2021/12/11 19:22:18;;;;;;;125.53;45.17;;;;;;;2.19;100.00;100964.72;10499622;28;20216;-66
2021/12/11 19:27:27;;;;;;;116.87;42.07;;;;;;;2.23;100.00;100984.47;10487524;28;20225;-66
2021/12/11 19:32:31;;;;;;;127.03;43.17;;;;;;;2.19;100.00;100994.56;10450966;28;20221;-64
2021/12/11 19:37:34;;;;;;;116.03;43.87;;;;;;;2.13;100.00;101000.34;10419460;28;20229;-64
2021/12/11 19:42:39;;;;;;;128.90;42.80;;;;;;;2.07;100.00;101001.84;10419448;28;20296;-62
2021/12/11 19:47:43;;;;;;;126.00;41.07;;;;;;;2.13;100.00;101013.16;10419547;28;20548;-64
2021/12/11 19:52:48;;;;;;;127.87;41.97;;;;;;;2.03;100.00;101013.66;10419263;28;20228;-63
2021/12/11 19:57:56;;;;;;;122.57;39.30;;;;;;;1.98;100.00;101012.66;10418641;28;20693;-64
2021/12/11 20:03:02;;;;;;;121.50;42.07;;;;;;;1.96;100.00;101014.28;10458932;28;20228;-63
2021/12/11 20:08:11;;;;;;;115.33;40.80;;;;;;;1.97;100.00;101030.47;10459676;28;20643;-64
2021/12/11 20:13:19;;;;;;;112.47;40.23;;;;;;;1.98;100.00;101022.00;10456606;28;20292;-66
2021/12/11 20:18:26;;;;;;;120.50;39.90;;;;;;;2.08;100.00;101030.06;10459785;28;20220;-65
2021/12/11 20:23:30;;;;;;;115.93;40.00;;;;;;;2.04;100.00;101029.88;10459539;28;20300;-63
2021/12/11 20:28:35;;;;;;;118.97;40.60;;;;;;;2.00;100.00;101028.91;10459129;28;20221;-64
2021/12/11 20:33:44;;;;;;;110.80;39.77;;;;;;;2.00;100.00;101053.66;10459205;28;20301;-66
2021/12/11 20:38:52;;;;;;;115.37;38.83;;;;;;;2.02;100.00;101042.63;10450635;28;20231;-64
2021/12/11 20:44:03;;;;;;;115.77;39.40;;;;;;;2.01;100.00;101053.69;10417720;28;20214;-64
2021/12/11 20:49:07;;;;;;;100.67;38.10;;;;;;;1.96;100.00;101064.59;10417041;28;20217;-64
2021/12/11 20:54:14;;;;;;;94.03;35.30;;;;;;;1.84;100.00;101070.16;10417166;28;20235;-64
2021/12/11 20:59:19;;;;;;;94.50;33.07;;;;;;;1.93;100.00;101080.69;10449348;28;20217;-64
2021/12/11 21:04:27;;;;;;;88.60;30.93;;;;;;;1.78;100.00;101082.69;10458637;28;20259;-64
2021/12/11 21:09:33;;;;;;;89.43;32.47;;;;;;;1.75;100.00;101087.72;10464583;28;20662;-64
2021/12/11 21:14:39;;;;;;;82.40;31.27;;;;;;;1.66;100.00;101096.72;10466465;28;20185;-65
2021/12/11 21:19:45;;;;;;;83.43;32.53;;;;;;;1.72;100.00;101114.88;10466252;28;20703;-68
2021/12/11 21:24:51;;;;;;;79.07;29.60;;;;;;;1.71;100.00;101120.81;10466198;28;20189;-65
2021/12/11 21:29:57;;;;;;;84.50;30.00;;;;;;;1.73;100.00;101126.84;10465331;28;20220;-67
2021/12/11 21:35:06;;;;;;;73.43;26.77;;;;;;;1.71;100.00;101131.06;10457386;28;20245;-64
2021/12/11 21:40:14;;;;;;;72.20;29.20;;;;;;;1.79;100.00;101132.19;10424308;28;20197;-65
2021/12/11 21:45:22;;;;;;;68.10;27.37;;;;;;;1.71;100.00;101142.13;10423692;28;20225;-64
2021/12/11 21:50:30;;;;;;;73.93;30.17;;;;;;;1.65;100.00;101141.91;10423301;28;20296;-65
2021/12/11 21:55:35;;;;;;;93.23;35.27;;;;;;;1.65;100.00;101146.16;10423624;28;20272;-65
2021/12/11 22:00:43;;;;;;;86.37;30.57;;;;;;;1.44;100.00;101142.75;10423943;28;20276;-66
2021/12/11 22:05:52;;;;;;;89.20;32.53;;;;;;;1.52;100.00;101149.91;10421414;28;20221;-66
2021/12/11 22:10:58;;;;;;;75.47;29.70;;;;;;;1.48;100.00;101149.75;10420237;28;20227;-64
2021/12/11 22:16:06;;;;;;;78.40;30.40;;;;;;;1.47;100.00;101148.88;10420073;28;20237;-65
2021/12/11 22:21:18;;;;;;;78.80;28.93;;;;;;;1.49;100.00;101142.13;10419499;28;20221;-66
2021/12/11 22:26:25;;;;;;;82.73;32.80;;;;;;;1.51;100.00;101145.63;10419465;28;20224;-66
2021/12/11 22:31:39;;;;;;;70.40;29.27;;;;;;;1.54;100.00;101153.41;10419587;28;20263;-67
2021/12/11 22:36:49;;;;;;;72.43;30.65;;;;;;;1.58;100.00;101151.84;10245624;27;10001233;-65
2021/12/11 22:42:01;;;;;;;64.90;29.50;;;;;;;1.56;100.00;101156.91;10501634;28;20414;-64
2021/12/11 22:47:10;;;;;;;61.37;30.47;;;;;;;1.54;100.00;101163.63;10501583;28;20224;-66
2021/12/11 22:52:15;;;;;;;65.37;31.57;;;;;;;1.58;100.00;101169.75;10500453;28;20188;-65
2021/12/11 22:57:23;;;;;;;64.07;30.23;;;;;;;1.46;100.00;101174.38;10499664;28;20645;-66
2021/12/11 23:02:30;;;;;;;72.20;32.37;;;;;;;1.30;100.00;101188.25;10500307;28;20192;-65
2021/12/11 23:07:37;;;;;;;66.87;32.17;;;;;;;1.29;100.00;101195.88;10499631;28;20224;-64